createdAt,value
2018-06-08T05:49:38.003Z,78.70
2018-06-08T05:55:25.599Z,84.10
2018-06-08T06:09:34.481Z,82.50
2018-06-08T06:24:46.414Z,83.10
2018-06-08T06:27:18.320Z,83.10
2018-06-08T06:29:47.538Z,82.30
2018-06-08T06:32:15.371Z,82.10
2018-06-08T06:34:44.056Z,82.40
2018-06-08T06:37:14.693Z,81.50
2018-06-08T06:39:43.412Z,80.70
2018-06-08T06:42:11.176Z,80.30
2018-06-08T06:44:39.213Z,80.60
2018-06-08T06:47:07.057Z,80.90
2018-06-08T06:49:34.590Z,80.30
2018-06-08T06:52:03.789Z,80.10
2018-06-08T06:54:45.032Z,80.00
2018-06-08T06:57:13.930Z,80.10
2018-06-08T06:59:47.825Z,80.00
2018-06-08T07:02:15.984Z,79.40
2018-06-08T07:04:44.920Z,79.10
2018-06-08T07:07:15.678Z,78.80
2018-06-08T07:12:56.396Z,79.20
2018-06-08T07:15:25.560Z,79.00
2018-06-08T07:17:55.494Z,79.40
2018-06-08T07:20:28.553Z,78.90
2018-06-08T07:23:03.617Z,78.70
2018-06-08T07:25:32.849Z,78.80
2018-06-08T07:28:01.267Z,78.40
2018-06-08T07:30:29.840Z,78.70
2018-06-08T07:33:23.435Z,78.10
2018-06-08T07:36:01.722Z,77.70
2018-06-08T07:38:36.643Z,77.10
2018-06-08T07:44:00.112Z,77.30
2018-06-08T07:46:29.751Z,78.10
2018-06-08T07:48:59.162Z,78.80
2018-06-08T07:51:28.011Z,77.70
2018-06-08T07:54:19.384Z,78.10
2018-06-08T07:56:49.838Z,79.50
2018-06-08T08:02:11.598Z,77.20
2018-06-08T08:04:43.024Z,77.30
2018-06-08T08:07:25.299Z,77.30
2018-06-08T08:10:54.826Z,77.00
2018-06-08T08:29:15.651Z,76.20
2018-06-08T08:31:45.853Z,74.10
2018-06-08T08:34:22.902Z,75.40
2018-06-08T08:37:17.395Z,75.60
2018-06-08T08:39:46.536Z,77.10
2018-06-08T08:48:18.048Z,74.60
2018-06-08T08:50:46.766Z,75.20
2018-06-08T08:53:17.332Z,73.80
2018-06-08T08:55:47.058Z,72.10
2018-06-08T08:58:15.513Z,72.30
2018-06-08T09:00:47.921Z,72.10
2018-06-08T09:03:16.284Z,73.70
2018-06-08T09:05:44.749Z,73.80
2018-06-08T09:08:17.154Z,72.20
2018-06-08T09:13:46.967Z,72.50
2018-06-08T09:16:15.092Z,70.70
2018-06-08T09:18:44.267Z,71.90
2018-06-08T09:21:12.225Z,71.70
2018-06-08T09:26:21.165Z,71.90
2018-06-08T09:29:09.003Z,72.10
2018-06-08T09:31:37.657Z,69.70
2018-06-08T09:34:10.774Z,69.60
2018-06-08T09:36:41.916Z,70.00
2018-06-08T09:39:12.729Z,69.70
2018-06-08T09:41:43.319Z,69.20
2018-06-08T09:44:11.791Z,67.10
2018-06-08T09:46:41.876Z,67.60
2018-06-08T09:49:11.022Z,68.70
2018-06-08T09:51:39.295Z,66.70
2018-06-08T09:56:50.971Z,66.20
2018-06-08T09:59:19.155Z,66.50
2018-06-08T10:01:47.173Z,66.10
2018-06-08T10:04:15.007Z,64.60
2018-06-08T10:06:42.948Z,64.90
2018-06-08T10:09:10.915Z,68.00
2018-06-08T10:11:38.680Z,65.40
2018-06-08T10:14:06.410Z,64.50
2018-06-08T10:16:34.254Z,65.10
2018-06-08T10:19:01.937Z,66.00
2018-06-08T10:21:29.698Z,63.90
2018-06-08T10:23:57.581Z,64.70
2018-06-08T10:26:26.100Z,62.00
2018-06-08T10:28:54.356Z,62.30
2018-06-08T10:31:22.299Z,64.20
2018-06-08T10:34:00.934Z,65.90
2018-06-08T10:36:28.836Z,65.60
2018-06-08T10:38:56.527Z,64.10
2018-06-08T10:41:28.128Z,64.40
2018-06-08T10:43:56.250Z,63.80
2018-06-08T10:46:24.847Z,62.80
2018-06-08T10:48:52.749Z,62.10
2018-06-08T10:51:22.615Z,64.30
2018-06-08T10:53:50.455Z,62.70
2018-06-08T10:56:18.162Z,62.70
2018-06-08T10:58:45.888Z,63.30
2018-06-08T11:01:13.567Z,62.10
2018-06-08T11:03:41.234Z,62.00
2018-06-08T11:06:14.775Z,61.50
2018-06-08T11:08:42.291Z,63.20
2018-06-08T11:11:20.733Z,61.40
2018-06-08T11:13:48.363Z,61.60
2018-06-08T11:16:16.021Z,61.60
2018-06-08T11:18:43.540Z,59.40
2018-06-08T11:21:11.185Z,58.00
2018-06-08T11:23:38.769Z,60.40
2018-06-08T11:26:06.343Z,59.70
2018-06-08T11:28:33.941Z,61.80
2018-06-08T11:31:03.830Z,59.40
2018-06-08T11:33:34.325Z,60.30
2018-06-08T11:36:02.447Z,62.00
2018-06-08T11:38:30.446Z,59.10
2018-06-08T11:40:58.185Z,61.40
2018-06-08T11:43:33.605Z,59.90
2018-06-08T11:46:01.570Z,59.60
2018-06-08T11:48:38.818Z,59.20
2018-06-08T11:51:06.679Z,60.40
2018-06-08T11:53:34.723Z,58.40
2018-06-08T11:56:02.632Z,56.80
2018-06-08T11:58:30.842Z,56.20
2018-06-08T12:00:59.151Z,57.10
2018-06-08T12:03:27.450Z,57.70
2018-06-08T12:05:55.692Z,56.80
2018-06-08T12:08:23.545Z,55.50
2018-06-08T12:10:51.914Z,57.20
2018-06-08T12:13:19.712Z,59.10
2018-06-08T12:18:35.892Z,56.40
2018-06-08T12:21:15.097Z,58.20
2018-06-08T12:23:43.248Z,58.70
2018-06-08T12:26:11.165Z,58.00
2018-06-08T12:28:39.145Z,56.40
2018-06-08T12:31:07.236Z,57.90
2018-06-08T12:33:35.200Z,55.90
2018-06-08T12:36:02.902Z,57.50
2018-06-08T12:38:30.609Z,56.20
2018-06-08T12:40:58.463Z,56.50
2018-06-08T12:43:26.537Z,58.70
2018-06-08T12:45:54.903Z,56.40
2018-06-08T12:48:22.777Z,57.10
2018-06-08T12:50:50.687Z,56.80
2018-06-08T12:53:18.368Z,56.60
2018-06-08T12:55:52.742Z,56.80
2018-06-08T12:58:20.340Z,57.10
2018-06-08T13:00:48.016Z,58.00
2018-06-08T13:03:15.667Z,56.30
2018-06-08T13:05:43.284Z,56.30
2018-06-08T13:08:10.873Z,58.20
2018-06-08T13:10:42.214Z,57.20
2018-06-08T13:13:09.852Z,56.00
2018-06-08T13:15:38.005Z,55.70
2018-06-08T13:18:05.688Z,56.10
2018-06-08T13:20:34.714Z,54.90
2018-06-08T13:23:02.804Z,55.00
2018-06-08T13:25:34.279Z,56.10
2018-06-08T13:28:02.249Z,56.40
2018-06-08T13:30:29.814Z,56.90
2018-06-08T13:32:57.495Z,54.50
2018-06-08T13:35:25.226Z,53.70
2018-06-08T13:37:52.870Z,52.20
2018-06-08T13:40:20.519Z,52.90
2018-06-08T13:42:48.187Z,55.00
2018-06-08T13:45:17.007Z,55.10
2018-06-08T13:47:44.544Z,52.70
2018-06-08T13:50:12.233Z,53.60
2018-06-08T13:52:39.869Z,53.30
2018-06-08T13:55:07.473Z,53.80
2018-06-08T13:57:35.093Z,54.80
2018-06-08T14:00:02.773Z,52.30
2018-06-08T14:02:50.685Z,54.20
2018-06-08T14:05:18.274Z,54.90
2018-06-08T14:07:45.942Z,54.20
2018-06-08T14:10:13.609Z,54.30
2018-06-08T14:12:41.327Z,53.00
2018-06-08T14:15:27.032Z,52.80
2018-06-08T14:17:54.671Z,52.30
2018-06-08T14:20:22.316Z,53.30
2018-06-08T14:22:49.990Z,54.00
2018-06-08T14:25:17.597Z,53.90
2018-06-08T14:27:45.271Z,53.70
2018-06-08T14:30:12.982Z,53.70
2018-06-08T14:32:45.842Z,53.90
2018-06-08T14:35:13.756Z,55.90
2018-06-08T14:37:41.599Z,52.10
2018-06-08T14:40:09.297Z,53.10
2018-06-08T14:42:36.987Z,52.90
2018-06-08T14:45:04.721Z,53.00
2018-06-08T14:47:32.457Z,53.40
2018-06-08T14:50:00.101Z,52.10
2018-06-08T14:52:27.811Z,50.70
2018-06-08T14:54:55.370Z,52.20
2018-06-08T14:57:22.958Z,52.90
2018-06-08T14:59:50.482Z,52.10
2018-06-08T15:02:18.118Z,53.80
2018-06-08T15:04:45.586Z,53.50
2018-06-08T15:07:13.256Z,51.80
2018-06-08T15:09:41.912Z,51.00
2018-06-08T15:12:09.549Z,51.10
2018-06-08T15:14:37.103Z,51.30
2018-06-08T15:17:04.766Z,51.00
2018-06-08T15:19:32.329Z,53.60
2018-06-08T15:21:59.851Z,50.20
2018-06-08T15:24:27.378Z,50.70
2018-06-08T15:26:54.885Z,50.40
2018-06-08T15:29:22.417Z,50.60
2018-06-08T15:31:50.022Z,52.50
2018-06-08T15:34:17.496Z,54.40
2018-06-08T15:36:45.082Z,54.80
2018-06-08T15:39:12.607Z,55.20
2018-06-08T15:41:40.224Z,54.60
2018-06-08T15:44:07.731Z,54.40
2018-06-08T15:46:35.338Z,54.50
2018-06-08T15:49:02.882Z,55.60
2018-06-08T15:51:30.388Z,55.80
2018-06-08T15:53:57.963Z,56.20
2018-06-08T15:56:25.440Z,56.90
2018-06-08T15:58:52.993Z,55.20
2018-06-08T16:01:20.546Z,55.20
2018-06-08T16:03:48.044Z,56.00
2018-06-08T16:06:15.557Z,56.60
2018-06-08T16:08:43.074Z,57.70
2018-06-08T16:11:10.611Z,58.40
2018-06-08T16:13:38.216Z,58.70
2018-06-08T16:16:05.778Z,58.60
2018-06-08T16:18:33.378Z,59.10
2018-06-08T16:21:04.561Z,59.40
2018-06-08T16:23:32.621Z,59.40
2018-06-08T16:26:00.511Z,59.30
2018-06-08T16:28:28.968Z,59.70
2018-06-08T16:30:56.628Z,60.70
2018-06-08T16:33:24.266Z,60.00
2018-06-08T16:35:52.446Z,60.00
2018-06-08T16:38:20.590Z,59.90
2018-06-08T16:40:48.494Z,60.50
2018-06-08T16:43:16.122Z,60.10
2018-06-08T16:45:43.981Z,61.50
2018-06-08T16:48:11.732Z,61.70
2018-06-08T16:50:39.574Z,61.70
2018-06-08T16:53:08.711Z,61.60
2018-06-08T16:55:36.368Z,60.70
2018-06-08T16:58:03.884Z,61.30
2018-06-08T17:00:43.999Z,60.90
2018-06-08T17:03:12.543Z,59.60
2018-06-08T17:05:40.166Z,60.10
2018-06-08T17:08:08.889Z,60.50
2018-06-08T17:13:11.231Z,60.60
2018-06-08T17:15:38.923Z,60.20
2018-06-08T17:18:06.550Z,60.50
2018-06-08T17:20:34.000Z,60.60
2018-06-08T17:23:01.576Z,60.80
2018-06-08T17:25:29.131Z,61.30
2018-06-08T17:27:56.712Z,61.80
2018-06-08T17:30:24.302Z,62.00
2018-06-08T17:32:51.902Z,61.90
2018-06-08T17:35:19.482Z,62.10
2018-06-08T17:37:58.101Z,62.20
2018-06-08T17:40:27.172Z,62.30
2018-06-08T17:42:56.515Z,62.60
2018-06-08T17:45:35.288Z,62.70
2018-06-08T17:48:39.596Z,62.80
2018-06-08T17:51:07.427Z,63.00
2018-06-08T17:53:46.283Z,63.20
2018-06-08T17:56:33.122Z,63.10
2018-06-08T17:59:08.651Z,63.50
2018-06-08T18:01:37.476Z,63.80
2018-06-08T18:04:05.595Z,64.10
2018-06-08T18:06:46.036Z,64.10
2018-06-08T18:09:14.357Z,64.30
2018-06-08T18:11:47.781Z,64.60
2018-06-08T18:14:26.590Z,64.30
2018-06-08T18:16:55.796Z,64.40
2018-06-08T18:19:24.238Z,64.40
2018-06-08T18:21:51.783Z,64.80
2018-06-08T18:24:19.422Z,64.90
2018-06-08T18:26:55.144Z,65.90
2018-06-08T18:32:11.800Z,65.50
2018-06-08T18:34:46.456Z,65.80
2018-06-08T18:37:38.450Z,66.40
2018-06-08T18:40:09.051Z,66.70
2018-06-08T18:42:55.941Z,67.10
2018-06-08T18:45:24.911Z,67.50
2018-06-08T18:47:54.273Z,68.00
2018-06-08T18:50:33.993Z,68.20
2018-06-08T18:53:14.416Z,69.00
2018-06-08T18:58:40.044Z,68.20
2018-06-08T19:01:09.617Z,68.50
2018-06-08T19:03:42.641Z,68.30
2018-06-08T19:06:40.794Z,68.10
2018-06-08T19:22:16.558Z,67.20
2018-06-08T19:25:08.523Z,67.50
2018-06-08T19:36:43.819Z,68.80
2018-06-08T19:39:14.147Z,68.50
2018-06-08T19:42:07.564Z,68.40
2018-06-08T19:44:36.527Z,68.40
2018-06-08T19:47:04.993Z,68.30
2018-06-08T19:49:46.204Z,68.30
2018-06-08T19:52:13.959Z,67.70
2018-06-08T19:54:41.839Z,67.50
2018-06-08T19:57:09.537Z,66.30
2018-06-08T19:59:37.132Z,65.60
2018-06-08T20:02:10.903Z,64.70
2018-06-08T20:04:38.932Z,64.40
2018-06-08T20:07:06.710Z,64.10
2018-06-08T20:09:34.579Z,64.00
2018-06-08T20:12:02.368Z,63.70
2018-06-08T20:14:30.043Z,63.80
2018-06-08T20:16:57.727Z,63.80
2018-06-08T20:19:25.567Z,63.90
2018-06-08T20:27:45.876Z,64.70
2018-06-08T20:30:13.447Z,65.10
2018-06-08T20:32:51.002Z,64.40
2018-06-08T20:35:18.692Z,65.10
2018-06-08T20:37:50.710Z,66.60
2018-06-08T20:40:19.355Z,66.40
2018-06-08T20:42:46.957Z,65.90
2018-06-08T20:45:15.614Z,65.80
2018-06-08T20:53:33.654Z,65.10
2018-06-08T20:56:01.297Z,65.00
2018-06-08T20:58:29.415Z,66.10
2018-06-08T21:01:11.243Z,67.60
2018-06-08T21:03:38.948Z,68.20
2018-06-08T21:06:06.768Z,69.30
2018-06-08T21:08:34.569Z,70.40
2018-06-08T21:11:02.189Z,70.80
2018-06-08T21:13:30.880Z,71.60
2018-06-08T21:15:58.357Z,71.70
2018-06-08T21:18:25.986Z,72.10
2018-06-08T21:20:53.484Z,73.10
2018-06-08T21:23:20.990Z,72.60
2018-06-08T21:25:48.613Z,73.00
2018-06-08T21:28:16.229Z,72.60
2018-06-08T21:33:39.015Z,72.50
2018-06-08T21:36:06.596Z,73.50
2018-06-08T21:47:14.240Z,73.60
2018-06-08T21:49:41.944Z,73.50
2018-06-08T21:52:17.137Z,73.60
2018-06-08T21:54:44.720Z,73.40
2018-06-08T21:57:12.332Z,73.80
2018-06-08T21:59:43.808Z,73.90
2018-06-08T22:02:11.477Z,74.20
2018-06-08T22:04:39.210Z,74.50
2018-06-08T22:07:06.812Z,74.90
2018-06-08T22:09:40.796Z,74.80
2018-06-08T22:12:27.006Z,74.90
2018-06-08T22:14:56.578Z,75.20
2018-06-08T22:17:28.981Z,75.20
2018-06-08T22:20:15.470Z,75.40
2018-06-08T22:22:43.225Z,75.90
2018-06-08T22:25:29.347Z,75.80
2018-06-08T22:27:56.934Z,75.70
2018-06-08T22:30:24.576Z,75.50
2018-06-08T22:32:52.437Z,75.70
2018-06-08T22:35:20.024Z,75.70
2018-06-08T22:37:47.642Z,75.90
2018-06-08T22:40:17.314Z,75.90
2018-06-08T22:42:44.836Z,75.50
2018-06-08T22:45:12.434Z,75.40
2018-06-08T22:47:40.032Z,74.90
2018-06-08T22:50:07.676Z,75.10
2018-06-08T22:52:35.138Z,75.70
2018-06-08T22:55:02.756Z,74.90
2018-06-08T22:57:30.362Z,75.70
2018-06-08T22:59:57.989Z,75.80
2018-06-08T23:02:25.559Z,75.80
2018-06-08T23:04:53.128Z,75.80
2018-06-08T23:07:20.733Z,75.60
2018-06-08T23:09:48.285Z,75.60
2018-06-08T23:12:15.882Z,75.30
2018-06-08T23:14:43.538Z,75.80
2018-06-08T23:17:11.132Z,76.10
2018-06-08T23:19:57.477Z,75.80
2018-06-08T23:22:25.492Z,75.90
2018-06-08T23:24:53.201Z,75.60
2018-06-08T23:27:21.392Z,76.40
2018-06-08T23:29:49.098Z,75.70
2018-06-08T23:32:16.792Z,75.70
2018-06-08T23:34:44.446Z,75.70
2018-06-08T23:37:12.225Z,76.10
2018-06-08T23:39:40.087Z,76.40
2018-06-08T23:42:07.871Z,76.40
2018-06-08T23:44:35.582Z,76.20
2018-06-08T23:47:03.172Z,76.40
2018-06-08T23:49:30.715Z,76.30
2018-06-08T23:51:58.348Z,76.10
2018-06-08T23:54:25.959Z,77.30
2018-06-08T23:56:53.523Z,77.10
2018-06-08T23:59:21.082Z,77.10
